sensor_id;sensor_type;location;lat;lon;timestamp;pressure;altitude;pressure_sealevel;temperature;humidity
79309;BME280;68767;53.078;7.386;2023-04-08T00:01:06;102490.41;;;3.90;81.31
79309;BME280;68767;53.078;7.386;2023-04-08T00:03:33;102494.47;;;3.93;81.07
79309;BME280;68767;53.078;7.386;2023-04-08T00:05:59;102489.47;;;3.97;81.81
79309;BME280;68767;53.078;7.386;2023-04-08T00:08:28;102501.16;;;3.84;81.16
79309;BME280;68767;53.078;7.386;2023-04-08T00:10:55;102496.31;;;3.81;81.95
79309;BME280;68767;53.078;7.386;2023-04-08T00:13:22;102502.44;;;3.81;82.37
79309;BME280;68767;53.078;7.386;2023-04-08T00:15:48;102504.50;;;3.79;82.13
79309;BME280;68767;53.078;7.386;2023-04-08T00:18:15;102503.59;;;3.74;82.22
79309;BME280;68767;53.078;7.386;2023-04-08T00:20:43;102504.25;;;3.69;82.68
79309;BME280;68767;53.078;7.386;2023-04-08T00:23:09;102504.97;;;3.64;82.82
79309;BME280;68767;53.078;7.386;2023-04-08T00:25:36;102511.28;;;3.63;82.97
79309;BME280;68767;53.078;7.386;2023-04-08T00:28:03;102509.34;;;3.59;82.90
79309;BME280;68767;53.078;7.386;2023-04-08T00:30:30;102507.59;;;3.53;83.43
79309;BME280;68767;53.078;7.386;2023-04-08T00:32:57;102508.84;;;3.50;83.26
79309;BME280;68767;53.078;7.386;2023-04-08T00:35:23;102506.19;;;3.50;82.81
79309;BME280;68767;53.078;7.386;2023-04-08T00:37:51;102503.53;;;3.50;83.38
79309;BME280;68767;53.078;7.386;2023-04-08T00:40:18;102509.28;;;3.47;83.63
79309;BME280;68767;53.078;7.386;2023-04-08T00:42:44;102505.50;;;3.43;84.13
79309;BME280;68767;53.078;7.386;2023-04-08T00:45:12;102509.63;;;3.39;84.15
79309;BME280;68767;53.078;7.386;2023-04-08T00:47:38;102510.31;;;3.34;84.27
79309;BME280;68767;53.078;7.386;2023-04-08T00:50:07;102505.00;;;3.34;84.47
79309;BME280;68767;53.078;7.386;2023-04-08T00:52:36;102501.44;;;3.41;84.54
79309;BME280;68767;53.078;7.386;2023-04-08T00:55:03;102507.19;;;3.37;84.54
79309;BME280;68767;53.078;7.386;2023-04-08T00:57:30;102509.53;;;3.46;84.80
79309;BME280;68767;53.078;7.386;2023-04-08T00:59:57;102507.47;;;3.48;84.70
79309;BME280;68767;53.078;7.386;2023-04-08T01:02:50;102507.81;;;3.51;84.40
79309;BME280;68767;53.078;7.386;2023-04-08T01:08:10;102518.94;;;3.60;84.43
79309;BME280;68767;53.078;7.386;2023-04-08T01:10:39;102514.41;;;3.60;84.59
79309;BME280;68767;53.078;7.386;2023-04-08T01:13:08;102508.44;;;3.65;84.62
79309;BME280;68767;53.078;7.386;2023-04-08T01:15:38;102506.78;;;3.64;84.50
79309;BME280;68767;53.078;7.386;2023-04-08T01:18:09;102515.34;;;3.66;84.62
79309;BME280;68767;53.078;7.386;2023-04-08T01:20:39;102519.63;;;3.67;84.65
79309;BME280;68767;53.078;7.386;2023-04-08T01:25:54;102515.03;;;3.74;84.59
79309;BME280;68767;53.078;7.386;2023-04-08T01:28:23;102522.53;;;3.77;84.51
79309;BME280;68767;53.078;7.386;2023-04-08T01:30:51;102522.28;;;3.79;84.57
79309;BME280;68767;53.078;7.386;2023-04-08T01:33:21;102514.56;;;3.77;84.62
79309;BME280;68767;53.078;7.386;2023-04-08T01:35:50;102520.00;;;3.82;84.86
79309;BME280;68767;53.078;7.386;2023-04-08T01:38:19;102511.56;;;3.85;84.87
79309;BME280;68767;53.078;7.386;2023-04-08T01:40:48;102516.88;;;3.85;85.02
79309;BME280;68767;53.078;7.386;2023-04-08T01:43:16;102523.38;;;3.89;85.07
79309;BME280;68767;53.078;7.386;2023-04-08T01:45:44;102529.13;;;3.86;85.12
79309;BME280;68767;53.078;7.386;2023-04-08T01:48:13;102525.22;;;3.89;85.16
79309;BME280;68767;53.078;7.386;2023-04-08T01:50:44;102531.91;;;3.91;85.29
79309;BME280;68767;53.078;7.386;2023-04-08T01:53:11;102528.22;;;3.92;85.44
79309;BME280;68767;53.078;7.386;2023-04-08T01:55:39;102529.59;;;3.95;85.41
79309;BME280;68767;53.078;7.386;2023-04-08T01:58:08;102527.16;;;3.93;85.30
79309;BME280;68767;53.078;7.386;2023-04-08T02:00:38;102527.16;;;3.93;85.51
79309;BME280;68767;53.078;7.386;2023-04-08T02:03:06;102537.81;;;3.82;85.96
79309;BME280;68767;53.078;7.386;2023-04-08T02:05:34;102532.34;;;3.77;86.07
79309;BME280;68767;53.078;7.386;2023-04-08T02:08:01;102533.72;;;3.67;86.74
79309;BME280;68767;53.078;7.386;2023-04-08T02:10:28;102533.25;;;3.59;86.91
79309;BME280;68767;53.078;7.386;2023-04-08T02:12:55;102536.72;;;3.59;87.59
79309;BME280;68767;53.078;7.386;2023-04-08T02:15:23;102539.84;;;3.56;87.89
79309;BME280;68767;53.078;7.386;2023-04-08T02:17:54;102533.13;;;3.54;88.08
79309;BME280;68767;53.078;7.386;2023-04-08T02:20:27;102539.69;;;3.51;88.08
79309;BME280;68767;53.078;7.386;2023-04-08T02:23:18;102539.47;;;3.53;88.03
79309;BME280;68767;53.078;7.386;2023-04-08T02:25:46;102534.53;;;3.56;87.81
79309;BME280;68767;53.078;7.386;2023-04-08T02:28:14;102544.69;;;3.59;88.19
79309;BME280;68767;53.078;7.386;2023-04-08T02:30:47;102542.03;;;3.59;87.76
79309;BME280;68767;53.078;7.386;2023-04-08T02:33:17;102539.28;;;3.66;87.60
79309;BME280;68767;53.078;7.386;2023-04-08T02:35:44;102541.94;;;3.66;87.87
79309;BME280;68767;53.078;7.386;2023-04-08T02:38:13;102541.69;;;3.67;87.37
79309;BME280;68767;53.078;7.386;2023-04-08T02:40:40;102547.16;;;3.73;87.56
79309;BME280;68767;53.078;7.386;2023-04-08T02:43:07;102549.59;;;3.74;87.67
79309;BME280;68767;53.078;7.386;2023-04-08T02:45:37;102547.34;;;3.71;87.83
79309;BME280;68767;53.078;7.386;2023-04-08T02:48:06;102556.13;;;3.72;87.89
79309;BME280;68767;53.078;7.386;2023-04-08T02:50:33;102544.94;;;3.70;88.09
79309;BME280;68767;53.078;7.386;2023-04-08T02:53:00;102559.03;;;3.70;88.17
79309;BME280;68767;53.078;7.386;2023-04-08T02:55:26;102563.09;;;3.73;88.18
79309;BME280;68767;53.078;7.386;2023-04-08T02:57:53;102558.22;;;3.70;88.04
79309;BME280;68767;53.078;7.386;2023-04-08T03:00:20;102571.19;;;3.78;87.78
79309;BME280;68767;53.078;7.386;2023-04-08T03:02:46;102556.28;;;3.77;88.00
79309;BME280;68767;53.078;7.386;2023-04-08T03:05:13;102563.13;;;3.84;87.62
79309;BME280;68767;53.078;7.386;2023-04-08T03:07:42;102556.88;;;3.90;87.82
79309;BME280;68767;53.078;7.386;2023-04-08T03:10:09;102558.13;;;3.88;87.22
79309;BME280;68767;53.078;7.386;2023-04-08T03:12:36;102552.28;;;3.98;87.31
79309;BME280;68767;53.078;7.386;2023-04-08T03:15:03;102553.75;;;3.93;87.33
79309;BME280;68767;53.078;7.386;2023-04-08T03:17:29;102559.78;;;4.01;87.57
79309;BME280;68767;53.078;7.386;2023-04-08T03:20:00;102552.28;;;3.98;87.25
79309;BME280;68767;53.078;7.386;2023-04-08T03:22:27;102557.59;;;3.98;87.55
79309;BME280;68767;53.078;7.386;2023-04-08T03:24:53;102560.78;;;3.88;87.42
79309;BME280;68767;53.078;7.386;2023-04-08T03:27:20;102554.81;;;3.92;87.60
79309;BME280;68767;53.078;7.386;2023-04-08T03:29:47;102559.66;;;3.84;87.98
79309;BME280;68767;53.078;7.386;2023-04-08T03:32:14;102565.75;;;3.73;88.40
79309;BME280;68767;53.078;7.386;2023-04-08T03:34:41;102562.72;;;3.69;88.45
79309;BME280;68767;53.078;7.386;2023-04-08T03:37:08;102564.81;;;3.67;87.72
79309;BME280;68767;53.078;7.386;2023-04-08T03:39:35;102563.63;;;3.63;89.07
79309;BME280;68767;53.078;7.386;2023-04-08T03:42:01;102559.03;;;3.58;88.92
79309;BME280;68767;53.078;7.386;2023-04-08T03:44:29;102560.41;;;3.61;88.54
79309;BME280;68767;53.078;7.386;2023-04-08T03:46:55;102568.59;;;3.59;88.61
79309;BME280;68767;53.078;7.386;2023-04-08T03:49:22;102568.75;;;3.64;88.98
79309;BME280;68767;53.078;7.386;2023-04-08T03:51:49;102567.72;;;3.65;88.72
79309;BME280;68767;53.078;7.386;2023-04-08T03:54:16;102573.28;;;3.76;88.56
79309;BME280;68767;53.078;7.386;2023-04-08T03:56:43;102577.06;;;3.80;89.03
79309;BME280;68767;53.078;7.386;2023-04-08T03:59:10;102577.69;;;3.82;88.82
79309;BME280;68767;53.078;7.386;2023-04-08T04:01:36;102582.53;;;3.97;88.63
79309;BME280;68767;53.078;7.386;2023-04-08T04:04:04;102577.34;;;4.02;88.22
79309;BME280;68767;53.078;7.386;2023-04-08T04:06:32;102576.06;;;4.04;88.23
79309;BME280;68767;53.078;7.386;2023-04-08T04:08:59;102574.03;;;4.06;87.68
79309;BME280;68767;53.078;7.386;2023-04-08T04:11:26;102577.16;;;4.15;88.38
79309;BME280;68767;53.078;7.386;2023-04-08T04:13:52;102583.03;;;4.17;87.72
79309;BME280;68767;53.078;7.386;2023-04-08T04:16:19;102584.41;;;4.19;88.04
79309;BME280;68767;53.078;7.386;2023-04-08T04:18:46;102584.88;;;4.28;87.90
79309;BME280;68767;53.078;7.386;2023-04-08T04:21:13;102588.94;;;4.31;87.23
79309;BME280;68767;53.078;7.386;2023-04-08T04:23:40;102586.38;;;4.36;87.25
79309;BME280;68767;53.078;7.386;2023-04-08T04:26:08;102582.59;;;4.32;88.02
79309;BME280;68767;53.078;7.386;2023-04-08T04:28:35;102573.66;;;4.38;87.47
79309;BME280;68767;53.078;7.386;2023-04-08T04:31:02;102580.16;;;4.42;87.78
79309;BME280;68767;53.078;7.386;2023-04-08T04:33:30;102581.16;;;4.53;87.21
79309;BME280;68767;53.078;7.386;2023-04-08T04:35:57;102581.97;;;4.53;86.90
79309;BME280;68767;53.078;7.386;2023-04-08T04:38:24;102581.16;;;4.53;87.38
79309;BME280;68767;53.078;7.386;2023-04-08T04:40:50;102588.09;;;4.54;87.60
79309;BME280;68767;53.078;7.386;2023-04-08T04:43:17;102584.31;;;4.49;87.18
79309;BME280;68767;53.078;7.386;2023-04-08T04:45:44;102588.81;;;4.49;87.28
79309;BME280;68767;53.078;7.386;2023-04-08T04:48:10;102592.53;;;4.48;87.66
79309;BME280;68767;53.078;7.386;2023-04-08T04:50:37;102600.97;;;4.45;87.56
79309;BME280;68767;53.078;7.386;2023-04-08T04:53:04;102606.50;;;4.43;87.79
79309;BME280;68767;53.078;7.386;2023-04-08T04:55:31;102606.88;;;4.47;87.73
79309;BME280;68767;53.078;7.386;2023-04-08T04:57:58;102607.56;;;4.42;87.71
79309;BME280;68767;53.078;7.386;2023-04-08T05:00:24;102599.56;;;4.42;87.34
79309;BME280;68767;53.078;7.386;2023-04-08T05:02:51;102610.56;;;4.46;87.32
79309;BME280;68767;53.078;7.386;2023-04-08T05:05:18;102605.59;;;4.38;87.50
79309;BME280;68767;53.078;7.386;2023-04-08T05:07:45;102609.53;;;4.35;87.80
79309;BME280;68767;53.078;7.386;2023-04-08T05:10:12;102614.38;;;4.38;87.74
79309;BME280;68767;53.078;7.386;2023-04-08T05:12:38;102613.56;;;4.38;87.67
79309;BME280;68767;53.078;7.386;2023-04-08T05:15:06;102611.38;;;4.46;87.23
79309;BME280;68767;53.078;7.386;2023-04-08T05:17:33;102608.03;;;4.51;86.95
79309;BME280;68767;53.078;7.386;2023-04-08T05:19:59;102612.75;;;4.61;86.84
79309;BME280;68767;53.078;7.386;2023-04-08T05:22:26;102615.78;;;4.64;86.45
79309;BME280;68767;53.078;7.386;2023-04-08T05:24:53;102617.84;;;4.74;86.39
79309;BME280;68767;53.078;7.386;2023-04-08T05:27:20;102617.03;;;4.73;86.35
79309;BME280;68767;53.078;7.386;2023-04-08T05:29:47;102616.78;;;4.87;86.15
79309;BME280;68767;53.078;7.386;2023-04-08T05:32:14;102632.75;;;4.87;85.97
79309;BME280;68767;53.078;7.386;2023-04-08T05:34:42;102614.00;;;4.93;85.52
79309;BME280;68767;53.078;7.386;2023-04-08T05:37:10;102618.38;;;4.99;85.43
79309;BME280;68767;53.078;7.386;2023-04-08T05:39:37;102620.81;;;5.01;84.79
79309;BME280;68767;53.078;7.386;2023-04-08T05:42:03;102626.25;;;5.06;85.13
79309;BME280;68767;53.078;7.386;2023-04-08T05:44:31;102632.94;;;5.08;84.80
79309;BME280;68767;53.078;7.386;2023-04-08T05:46:57;102629.72;;;5.06;84.88
79309;BME280;68767;53.078;7.386;2023-04-08T05:49:25;102636.28;;;5.16;84.40
79309;BME280;68767;53.078;7.386;2023-04-08T05:51:52;102633.06;;;5.14;84.48
79309;BME280;68767;53.078;7.386;2023-04-08T05:54:19;102642.31;;;5.23;84.73
79309;BME280;68767;53.078;7.386;2023-04-08T05:56:46;102645.41;;;5.20;84.54
79309;BME280;68767;53.078;7.386;2023-04-08T05:59:14;102642.06;;;5.24;84.90
79309;BME280;68767;53.078;7.386;2023-04-08T06:01:41;102647.94;;;5.38;83.56
79309;BME280;68767;53.078;7.386;2023-04-08T06:04:08;102650.13;;;5.41;83.28
79309;BME280;68767;53.078;7.386;2023-04-08T06:06:37;102649.44;;;5.34;83.63
79309;BME280;68767;53.078;7.386;2023-04-08T06:09:04;102654.53;;;5.35;84.07
79309;BME280;68767;53.078;7.386;2023-04-08T06:11:31;102654.97;;;5.44;83.49
79309;BME280;68767;53.078;7.386;2023-04-08T06:13:58;102664.69;;;5.50;83.88
79309;BME280;68767;53.078;7.386;2023-04-08T06:16:25;102657.75;;;5.49;83.85
79309;BME280;68767;53.078;7.386;2023-04-08T06:18:52;102671.25;;;5.59;82.85
79309;BME280;68767;53.078;7.386;2023-04-08T06:21:19;102670.69;;;5.57;83.55
79309;BME280;68767;53.078;7.386;2023-04-08T06:23:46;102676.47;;;5.54;83.47
79309;BME280;68767;53.078;7.386;2023-04-08T06:26:13;102677.41;;;5.60;83.48
79309;BME280;68767;53.078;7.386;2023-04-08T06:28:40;102677.31;;;5.55;83.36
79309;BME280;68767;53.078;7.386;2023-04-08T06:31:07;102677.91;;;5.45;83.38
79309;BME280;68767;53.078;7.386;2023-04-08T06:33:34;102678.06;;;5.39;84.12
79309;BME280;68767;53.078;7.386;2023-04-08T06:36:02;102681.91;;;5.31;84.00
79309;BME280;68767;53.078;7.386;2023-04-08T06:38:29;102677.72;;;5.35;84.77
79309;BME280;68767;53.078;7.386;2023-04-08T06:41:04;102677.91;;;5.45;84.26
79309;BME280;68767;53.078;7.386;2023-04-08T06:43:32;102679.75;;;5.45;84.28
79309;BME280;68767;53.078;7.386;2023-04-08T06:45:59;102688.19;;;5.53;84.55
79309;BME280;68767;53.078;7.386;2023-04-08T06:48:26;102680.69;;;5.50;84.31
79309;BME280;68767;53.078;7.386;2023-04-08T06:50:56;102690.03;;;5.53;83.69
79309;BME280;68767;53.078;7.386;2023-04-08T06:53:24;102687.88;;;5.50;84.21
79309;BME280;68767;53.078;7.386;2023-04-08T06:55:51;102700.63;;;5.48;83.73
79309;BME280;68767;53.078;7.386;2023-04-08T06:58:17;102695.38;;;5.53;84.26
79309;BME280;68767;53.078;7.386;2023-04-08T07:00:44;102694.19;;;5.60;84.28
79309;BME280;68767;53.078;7.386;2023-04-08T07:03:11;102704.16;;;5.65;83.62
79309;BME280;68767;53.078;7.386;2023-04-08T07:05:38;102695.13;;;5.66;83.76
79309;BME280;68767;53.078;7.386;2023-04-08T07:08:05;102692.88;;;5.75;83.52
79309;BME280;68767;53.078;7.386;2023-04-08T07:10:33;102702.50;;;5.76;83.91
79309;BME280;68767;53.078;7.386;2023-04-08T07:13:00;102699.56;;;5.77;83.94
79309;BME280;68767;53.078;7.386;2023-04-08T07:15:27;102697.59;;;5.84;83.58
79309;BME280;68767;53.078;7.386;2023-04-08T07:17:54;102699.09;;;5.92;83.08
79309;BME280;68767;53.078;7.386;2023-04-08T07:20:24;102702.97;;;6.01;83.15
79309;BME280;68767;53.078;7.386;2023-04-08T07:22:57;102699.03;;;6.20;82.92
79309;BME280;68767;53.078;7.386;2023-04-08T07:25:24;102699.28;;;6.36;81.78
79309;BME280;68767;53.078;7.386;2023-04-08T07:27:50;102701.25;;;6.24;82.25
79309;BME280;68767;53.078;7.386;2023-04-08T07:30:21;102700.19;;;6.25;82.67
79309;BME280;68767;53.078;7.386;2023-04-08T07:32:48;102707.31;;;6.36;82.02
79309;BME280;68767;53.078;7.386;2023-04-08T07:35:14;102702.16;;;6.46;81.24
79309;BME280;68767;53.078;7.386;2023-04-08T07:37:49;102710.47;;;6.33;81.94
79309;BME280;68767;53.078;7.386;2023-04-08T07:40:16;102715.97;;;6.26;82.32
79309;BME280;68767;53.078;7.386;2023-04-08T07:42:43;102722.03;;;6.22;82.10
79309;BME280;68767;53.078;7.386;2023-04-08T07:45:10;102722.59;;;6.24;82.36
79309;BME280;68767;53.078;7.386;2023-04-08T07:47:37;102724.78;;;6.43;81.74
79309;BME280;68767;53.078;7.386;2023-04-08T07:50:04;102731.91;;;6.38;82.13
79309;BME280;68767;53.078;7.386;2023-04-08T07:52:32;102735.88;;;6.35;82.52
79309;BME280;68767;53.078;7.386;2023-04-08T07:55:00;102736.09;;;6.34;82.12
79309;BME280;68767;53.078;7.386;2023-04-08T07:57:27;102736.59;;;6.31;82.84
79309;BME280;68767;53.078;7.386;2023-04-08T07:59:54;102735.53;;;6.32;82.63
79309;BME280;68767;53.078;7.386;2023-04-08T08:02:22;102731.97;;;6.26;82.74
79309;BME280;68767;53.078;7.386;2023-04-08T08:04:49;102738.78;;;6.34;82.58
79309;BME280;68767;53.078;7.386;2023-04-08T08:07:15;102738.22;;;6.48;82.14
79309;BME280;68767;53.078;7.386;2023-04-08T08:09:42;102744.53;;;6.42;82.37
79309;BME280;68767;53.078;7.386;2023-04-08T08:12:09;102740.63;;;6.33;82.32
79309;BME280;68767;53.078;7.386;2023-04-08T08:14:36;102741.44;;;6.34;82.79
79309;BME280;68767;53.078;7.386;2023-04-08T08:17:03;102745.03;;;6.39;82.67
79309;BME280;68767;53.078;7.386;2023-04-08T08:19:30;102740.91;;;6.48;82.50
79309;BME280;68767;53.078;7.386;2023-04-08T08:21:56;102748.56;;;6.62;82.49
79309;BME280;68767;53.078;7.386;2023-04-08T08:24:23;102745.03;;;6.73;82.29
79309;BME280;68767;53.078;7.386;2023-04-08T08:26:51;102748.50;;;6.73;82.22
79309;BME280;68767;53.078;7.386;2023-04-08T08:29:18;102750.44;;;6.78;82.18
79309;BME280;68767;53.078;7.386;2023-04-08T08:31:44;102751.06;;;6.85;81.65
79309;BME280;68767;53.078;7.386;2023-04-08T08:34:11;102755.16;;;6.88;81.61
79309;BME280;68767;53.078;7.386;2023-04-08T08:36:38;102752.19;;;7.06;80.85
79309;BME280;68767;53.078;7.386;2023-04-08T08:39:05;102750.94;;;7.30;80.78
79309;BME280;68767;53.078;7.386;2023-04-08T08:41:33;102748.19;;;7.47;79.99
79309;BME280;68767;53.078;7.386;2023-04-08T08:44:01;102751.34;;;7.44;79.52
79309;BME280;68767;53.078;7.386;2023-04-08T08:46:29;102750.47;;;7.60;78.79
79309;BME280;68767;53.078;7.386;2023-04-08T08:48:56;102757.03;;;7.48;79.62
79309;BME280;68767;53.078;7.386;2023-04-08T08:51:23;102754.34;;;7.48;79.67
79309;BME280;68767;53.078;7.386;2023-04-08T08:53:51;102759.06;;;7.41;80.37
79309;BME280;68767;53.078;7.386;2023-04-08T08:56:18;102756.56;;;7.34;81.24
79309;BME280;68767;53.078;7.386;2023-04-08T08:58:45;102756.03;;;7.32;80.85
79309;BME280;68767;53.078;7.386;2023-04-08T09:01:48;102764.53;;;7.51;79.78
79309;BME280;68767;53.078;7.386;2023-04-08T09:04:17;102763.91;;;7.44;80.74
79309;BME280;68767;53.078;7.386;2023-04-08T09:06:47;102762.44;;;7.53;79.94
79309;BME280;68767;53.078;7.386;2023-04-08T09:09:16;102762.19;;;7.54;80.40
79309;BME280;68767;53.078;7.386;2023-04-08T09:11:45;102758.94;;;7.52;80.58
79309;BME280;68767;53.078;7.386;2023-04-08T09:16:45;102766.91;;;7.47;80.61
79309;BME280;68767;53.078;7.386;2023-04-08T09:19:12;102771.75;;;7.50;81.33
79309;BME280;68767;53.078;7.386;2023-04-08T09:21:39;102766.78;;;7.59;80.14
79309;BME280;68767;53.078;7.386;2023-04-08T09:24:07;102773.38;;;7.73;80.54
79309;BME280;68767;53.078;7.386;2023-04-08T09:26:35;102773.22;;;7.80;79.92
79309;BME280;68767;53.078;7.386;2023-04-08T09:29:08;102770.63;;;7.90;78.85
79309;BME280;68767;53.078;7.386;2023-04-08T09:31:53;102779.28;;;7.97;79.59
79309;BME280;68767;53.078;7.386;2023-04-08T09:34:22;102768.16;;;8.10;78.65
79309;BME280;68767;53.078;7.386;2023-04-08T09:36:50;102777.09;;;7.94;79.58
79309;BME280;68767;53.078;7.386;2023-04-08T09:39:17;102772.72;;;8.10;79.18
79309;BME280;68767;53.078;7.386;2023-04-08T09:41:47;102772.50;;;8.16;79.22
79309;BME280;68767;53.078;7.386;2023-04-08T09:44:14;102778.13;;;8.15;79.22
79309;BME280;68767;53.078;7.386;2023-04-08T09:47:42;102783.13;;;8.33;78.42
79309;BME280;68767;53.078;7.386;2023-04-08T09:50:03;102780.00;;;8.14;78.47
79309;BME280;68767;53.078;7.386;2023-04-08T09:52:33;102779.47;;;8.17;78.86
79309;BME280;68767;53.078;7.386;2023-04-08T09:55:08;102780.34;;;8.23;78.35
79309;BME280;68767;53.078;7.386;2023-04-08T09:57:51;102775.81;;;8.24;78.96
79309;BME280;68767;53.078;7.386;2023-04-08T10:00:21;102776.69;;;8.34;78.76
79309;BME280;68767;53.078;7.386;2023-04-08T10:05:30;102777.03;;;8.38;77.93
79309;BME280;68767;53.078;7.386;2023-04-08T10:07:57;102771.69;;;8.38;78.64
79309;BME280;68767;53.078;7.386;2023-04-08T10:10:24;102769.28;;;8.36;77.87
79309;BME280;68767;53.078;7.386;2023-04-08T10:12:52;102778.72;;;8.44;78.68
79309;BME280;68767;53.078;7.386;2023-04-08T10:15:32;102773.91;;;8.46;77.90
79309;BME280;68767;53.078;7.386;2023-04-08T10:23:07;102772.63;;;8.54;78.08
79309;BME280;68767;53.078;7.386;2023-04-08T10:25:38;102777.84;;;8.38;78.21
79309;BME280;68767;53.078;7.386;2023-04-08T10:30:42;102781.47;;;8.54;77.85
79309;BME280;68767;53.078;7.386;2023-04-08T10:33:14;102773.38;;;8.49;77.21
79309;BME280;68767;53.078;7.386;2023-04-08T10:35:45;102772.31;;;8.50;77.26
79309;BME280;68767;53.078;7.386;2023-04-08T10:38:14;102783.91;;;8.56;77.89
79309;BME280;68767;53.078;7.386;2023-04-08T10:40:42;102786.06;;;8.59;78.15
79309;BME280;68767;53.078;7.386;2023-04-08T10:43:11;102780.31;;;8.45;77.85
79309;BME280;68767;53.078;7.386;2023-04-08T10:45:39;102775.00;;;8.50;78.30
79309;BME280;68767;53.078;7.386;2023-04-08T10:48:18;102777.47;;;8.57;77.85
79309;BME280;68767;53.078;7.386;2023-04-08T10:50:55;102777.84;;;8.38;78.32
79309;BME280;68767;53.078;7.386;2023-04-08T10:56:07;102775.94;;;8.66;78.22
79309;BME280;68767;53.078;7.386;2023-04-08T10:58:35;102775.91;;;8.61;78.03
79309;BME280;68767;53.078;7.386;2023-04-08T11:01:04;102773.66;;;8.85;77.86
79309;BME280;68767;53.078;7.386;2023-04-08T11:03:33;102779.22;;;8.73;77.10
79309;BME280;68767;53.078;7.386;2023-04-08T11:06:01;102787.53;;;8.77;77.43
79309;BME280;68767;53.078;7.386;2023-04-08T11:08:29;102781.75;;;8.90;76.65
79309;BME280;68767;53.078;7.386;2023-04-08T11:10:57;102781.00;;;8.94;76.56
79309;BME280;68767;53.078;7.386;2023-04-08T11:13:24;102776.53;;;9.10;76.24
79309;BME280;68767;53.078;7.386;2023-04-08T11:15:51;102774.63;;;9.06;75.61
79309;BME280;68767;53.078;7.386;2023-04-08T11:18:19;102773.53;;;9.07;75.12
79309;BME280;68767;53.078;7.386;2023-04-08T11:20:50;102774.06;;;9.04;75.81
79309;BME280;68767;53.078;7.386;2023-04-08T11:23:17;102784.47;;;8.95;76.01
79309;BME280;68767;53.078;7.386;2023-04-08T11:25:45;102778.81;;;8.91;76.61
79309;BME280;68767;53.078;7.386;2023-04-08T11:28:13;102778.53;;;8.93;76.68
79309;BME280;68767;53.078;7.386;2023-04-08T11:30:40;102778.25;;;8.89;77.13
79309;BME280;68767;53.078;7.386;2023-04-08T11:33:07;102781.53;;;8.96;76.48
79309;BME280;68767;53.078;7.386;2023-04-08T11:35:39;102781.81;;;9.00;76.33
79309;BME280;68767;53.078;7.386;2023-04-08T11:38:07;102774.56;;;9.00;76.37
79309;BME280;68767;53.078;7.386;2023-04-08T11:40:34;102778.81;;;8.91;77.74
79309;BME280;68767;53.078;7.386;2023-04-08T11:43:08;102779.13;;;8.95;76.61
79309;BME280;68767;53.078;7.386;2023-04-08T11:45:40;102784.22;;;9.01;76.23
79309;BME280;68767;53.078;7.386;2023-04-08T11:48:11;102776.78;;;9.09;77.34
79309;BME280;68767;53.078;7.386;2023-04-08T11:50:38;102785.22;;;9.27;74.23
79309;BME280;68767;53.078;7.386;2023-04-08T11:53:24;102780.22;;;9.46;74.16
79309;BME280;68767;53.078;7.386;2023-04-08T11:55:51;102787.25;;;9.68;73.57
79309;BME280;68767;53.078;7.386;2023-04-08T11:58:18;102789.13;;;9.67;73.20
79309;BME280;68767;53.078;7.386;2023-04-08T12:00:44;102793.13;;;9.60;73.11
79309;BME280;68767;53.078;7.386;2023-04-08T12:03:11;102795.84;;;9.65;73.30
79309;BME280;68767;53.078;7.386;2023-04-08T12:05:39;102784.06;;;9.71;72.75
79309;BME280;68767;53.078;7.386;2023-04-08T12:08:06;102799.09;;;9.72;73.26
79309;BME280;68767;53.078;7.386;2023-04-08T12:10:33;102794.28;;;9.69;72.49
79309;BME280;68767;53.078;7.386;2023-04-08T12:13:00;102793.69;;;9.67;73.34
79309;BME280;68767;53.078;7.386;2023-04-08T12:15:26;102791.81;;;9.62;74.05
79309;BME280;68767;53.078;7.386;2023-04-08T12:17:53;102784.41;;;9.90;73.08
79309;BME280;68767;53.078;7.386;2023-04-08T12:20:20;102788.16;;;9.89;72.03
79309;BME280;68767;53.078;7.386;2023-04-08T12:22:49;102785.75;;;9.87;71.95
79309;BME280;68767;53.078;7.386;2023-04-08T12:25:16;102786.53;;;9.82;72.39
79309;BME280;68767;53.078;7.386;2023-04-08T12:27:43;102789.94;;;9.63;73.35
79309;BME280;68767;53.078;7.386;2023-04-08T12:30:10;102788.94;;;9.79;71.48
79309;BME280;68767;53.078;7.386;2023-04-08T12:32:37;102788.44;;;9.87;71.05
79309;BME280;68767;53.078;7.386;2023-04-08T12:35:04;102794.06;;;9.91;72.35
79309;BME280;68767;53.078;7.386;2023-04-08T12:37:31;102792.25;;;10.17;72.42
79309;BME280;68767;53.078;7.386;2023-04-08T12:39:58;102788.53;;;10.33;70.01
79309;BME280;68767;53.078;7.386;2023-04-08T12:42:26;102797.16;;;10.35;69.30
79309;BME280;68767;53.078;7.386;2023-04-08T12:44:53;102781.56;;;10.27;71.07
79309;BME280;68767;53.078;7.386;2023-04-08T12:47:20;102780.25;;;10.45;71.08
79309;BME280;68767;53.078;7.386;2023-04-08T12:49:50;102786.13;;;10.82;70.46
79309;BME280;68767;53.078;7.386;2023-04-08T12:52:16;102787.47;;;10.90;68.96
79309;BME280;68767;53.078;7.386;2023-04-08T12:54:44;102781.28;;;10.94;69.20
79309;BME280;68767;53.078;7.386;2023-04-08T12:57:11;102784.47;;;11.17;66.97
79309;BME280;68767;53.078;7.386;2023-04-08T12:59:38;102784.25;;;11.03;67.33
79309;BME280;68767;53.078;7.386;2023-04-08T13:02:06;102777.00;;;10.88;67.98
79309;BME280;68767;53.078;7.386;2023-04-08T13:04:33;102782.13;;;10.59;68.70
79309;BME280;68767;53.078;7.386;2023-04-08T13:07:00;102781.84;;;10.51;69.63
79309;BME280;68767;53.078;7.386;2023-04-08T13:09:27;102785.06;;;10.58;69.11
79309;BME280;68767;53.078;7.386;2023-04-08T13:11:56;102785.31;;;10.41;70.27
79309;BME280;68767;53.078;7.386;2023-04-08T13:14:24;102786.69;;;10.54;70.16
79309;BME280;68767;53.078;7.386;2023-04-08T13:16:51;102776.72;;;10.90;69.98
79309;BME280;68767;53.078;7.386;2023-04-08T13:19:18;102775.13;;;10.94;69.12
79309;BME280;68767;53.078;7.386;2023-04-08T13:21:44;102774.53;;;11.12;67.59
79309;BME280;68767;53.078;7.386;2023-04-08T13:24:11;102780.72;;;11.18;68.89
79309;BME280;68767;53.078;7.386;2023-04-08T13:26:38;102764.56;;;11.08;67.95